Harbert, Michigan
Current Conditions -  °F | °C
As of 12:55 PM on Friday 28 Nov 2014 (Local Time) from KMGC Reporting Station
Scattered Clouds Scattered Clouds  
Wind Chill: 21°   Ceiling: Unl
Heat Index: 30°   Visibility: 10mi
Dew Point: 16°   Wind: 10mph
Humidity: 55%   Direction: 170°S
Pressure: 30.18"   Gusts: 16mph
Location:  41.87°N, 86.63°W
Report Text: KMGC 281755Z AUTO 17009G14KT 10SM SCT110 M01/M09 A3018 RMK AO2
Loading
Personal Weather Stations






























Interactive Weather Map New forecast layout! Learn more

10-Day Weather Forecast

Advertisements
Track Severe Weather on mobile